Time;durP1;ratioP1;P1;durP2;ratioP2;P2;SDS_P1;SDS_P2;PMS_P1;PMS_P2;Temp;Humidity;BMP_temperature;BMP_pressure;BME280_temperature;BME280_humidity;BME280_pressure;Samples;Min_cycle;Max_cycle;Signal;HPM_P1;HPM_P2
2022/11/24 06:16:29;;;;;;;;;4.75;2.25;;;;;9.36;71.48;100996.50;2561848;23;45659;-79
2022/11/24 06:17:39;;;;;;;;;4.25;2.00;;;;;9.36;71.39;100995.66;2382678;28;46504;-80
2022/11/24 06:18:49;;;;;;;;;1.75;1.75;;;;;9.33;71.17;100994.81;2382772;28;45444;-80
2022/11/24 06:20:00;;;;;;;;;5.25;2.50;;;;;9.35;71.50;101005.28;2384258;28;46139;-79
2022/11/24 06:21:10;;;;;;;;;2.00;1.50;;;;;9.32;71.41;100997.50;2383578;28;45242;-80
2022/11/24 06:22:21;;;;;;;;;3.00;1.00;;;;;9.32;71.25;101000.09;2384111;28;47236;-80
2022/11/24 06:23:31;;;;;;;;;2.00;2.00;;;;;9.31;71.45;100998.41;2384613;28;45258;-80
2022/11/24 06:24:42;;;;;;;;;3.75;2.00;;;;;9.30;71.70;101008.03;2383582;28;45983;-80
2022/11/24 06:25:52;;;;;;;;;2.00;1.75;;;;;9.30;71.68;101000.16;2384134;28;45231;-80
2022/11/24 06:27:03;;;;;;;;;2.00;2.00;;;;;9.29;71.42;101003.66;2384369;28;45460;-80
2022/11/24 06:28:13;;;;;;;;;4.00;1.00;;;;;9.29;71.35;100998.41;2385166;28;45508;-80
2022/11/24 06:29:24;;;;;;;;;4.00;4.00;;;;;9.27;71.69;101000.22;2384027;28;46287;-80
2022/11/24 06:30:34;;;;;;;;;4.00;2.00;;;;;9.27;71.64;101004.59;2384307;28;44981;-79
2022/11/24 06:31:44;;;;;;;;;4.00;1.00;;;;;9.27;72.05;101004.59;2384060;28;45597;-80
2022/11/24 06:32:55;;;;;;;;;5.00;3.00;;;;;9.26;72.01;101005.50;2385056;28;45502;-80
2022/11/24 06:34:06;;;;;;;;;8.50;3.00;;;;;9.27;71.96;101010.72;2382660;28;45332;-80
2022/11/24 06:35:17;;;;;;;;;4.00;3.00;;;;;9.26;72.41;101008.97;2385078;28;45475;-79
2022/11/24 06:36:27;;;;;;;;;3.25;2.75;;;;;9.28;71.90;101007.22;2384955;28;45263;-80
2022/11/24 06:37:38;;;;;;;;;4.50;2.25;;;;;9.27;71.85;101007.22;2385002;28;45158;-80
2022/11/24 06:38:48;;;;;;;;;3.25;2.00;;;;;9.27;71.81;101000.22;2384874;28;46093;-79
2022/11/24 06:39:59;;;;;;;;;4.25;1.75;;;;;9.28;71.79;101006.34;2384906;28;44712;-80
2022/11/24 06:41:13;;;;;;;;;4.00;2.25;;;;;9.30;72.07;101012.41;2384924;28;46358;-79
2022/11/24 06:42:24;;;;;;;;;4.25;3.25;;;;;9.30;71.95;101012.41;2384921;28;45365;-79
2022/11/24 06:43:35;;;;;;;;;5.00;4.00;;;;;9.30;72.06;101015.03;2384804;28;45806;-80
2022/11/24 06:44:50;;;;;;;;;3.00;3.00;;;;;9.29;72.28;101023.78;2384931;28;44621;-80
2022/11/24 06:46:00;;;;;;;;;1.75;1.75;;;;;9.29;72.18;101021.16;2384020;28;45407;-80
2022/11/24 06:47:10;;;;;;;;;3.00;2.00;;;;;9.30;71.88;101030.75;2393498;28;45361;-79
2022/11/24 06:48:21;;;;;;;;;4.25;2.75;;;;;9.29;71.77;101024.66;2383918;28;47484;-80
2022/11/24 06:49:32;;;;;;;;;5.00;1.00;;;;;9.29;71.99;101035.16;2384388;28;45293;-80
2022/11/24 06:50:42;;;;;;;;;4.75;2.00;;;;;9.29;72.38;101034.28;2380906;28;46957;-80
2022/11/24 06:51:55;;;;;;;;;4.50;3.75;;;;;9.30;72.16;101036.00;2377442;28;44702;-79
2022/11/24 06:53:06;;;;;;;;;3.00;3.00;;;;;9.31;72.18;101037.75;2384092;28;46456;-80
2022/11/24 06:54:19;;;;;;;;;2.50;2.50;;;;;9.32;72.12;101042.09;2384815;28;45317;-79
2022/11/24 06:55:30;;;;;;;;;2.00;1.00;;;;;9.30;72.09;101042.13;2382640;28;47472;-79
2022/11/24 06:56:40;;;;;;;;;3.25;3.25;;;;;9.30;72.09;101044.75;2381351;28;44887;-79
2022/11/24 06:57:50;;;;;;;;;5.00;3.25;;;;;9.31;72.09;101046.47;2381841;28;46405;-80
2022/11/24 06:59:02;;;;;;;;;5.00;2.50;;;;;9.31;72.40;101045.63;2379851;28;47294;-79
2022/11/24 07:00:13;;;;;;;;;4.00;2.50;;;;;9.32;71.92;101052.56;2382257;28;46485;-79
2022/11/24 07:01:25;;;;;;;;;3.00;2.00;;;;;9.32;72.69;101044.72;2384390;28;45376;-79
2022/11/24 07:02:36;;;;;;;;;7.50;3.25;;;;;9.31;72.57;101046.47;2382702;28;45557;-79
2022/11/24 07:03:47;;;;;;;;;4.00;0.00;;;;;9.30;72.13;101047.38;2382539;28;47168;-80
2022/11/24 07:04:57;;;;;;;;;5.50;4.00;;;;;9.32;72.21;101053.44;2382398;28;45492;-80
2022/11/24 07:06:08;;;;;;;;;2.00;2.00;;;;;9.30;72.47;101052.63;2382841;28;46179;-80
2022/11/24 07:07:18;;;;;;;;;4.50;2.25;;;;;9.31;72.28;101054.34;2384886;28;45303;-80
2022/11/24 07:08:28;;;;;;;;;3.75;3.00;;;;;9.32;72.57;101055.19;2385082;28;45262;-79
2022/11/24 07:09:38;;;;;;;;;2.25;2.25;;;;;9.31;72.58;101059.56;2379366;28;45320;-79
2022/11/24 07:10:49;;;;;;;;;4.00;3.00;;;;;9.32;72.57;101065.69;2378853;28;45152;-79
2022/11/24 07:12:01;;;;;;;;;5.00;2.75;;;;;9.32;72.62;101066.56;2377328;28;46288;-80
2022/11/24 07:13:11;;;;;;;;;5.00;3.00;;;;;9.34;72.64;101074.38;2384116;28;45465;-80
2022/11/24 07:14:21;;;;;;;;;3.00;1.75;;;;;9.34;72.57;101079.63;2384476;28;45427;-79
2022/11/24 07:15:32;;;;;;;;;3.00;2.75;;;;;9.33;72.53;101076.13;2384284;28;45346;-79
2022/11/24 07:16:42;;;;;;;;;8.00;2.00;;;;;9.32;72.75;101071.81;2389435;28;46374;-80
2022/11/24 07:17:53;;;;;;;;;6.50;2.50;;;;;9.32;72.58;101082.31;2394541;28;45277;-80
2022/11/24 07:19:03;;;;;;;;;6.75;3.50;;;;;9.34;72.71;101077.00;2394123;28;46246;-80
2022/11/24 07:20:14;;;;;;;;;4.25;4.25;;;;;9.35;72.57;101078.75;2384430;28;44771;-80
2022/11/24 07:21:25;;;;;;;;;1.50;1.50;;;;;9.34;72.69;101079.63;2389553;28;47185;-80
2022/11/24 07:22:35;;;;;;;;;4.25;1.75;;;;;9.34;72.56;101074.38;2392495;28;44693;-80
2022/11/24 07:23:54;;;;;;;;;6.50;2.00;;;;;9.34;72.61;101075.25;2393889;28;45424;-80
2022/11/24 07:25:08;;;;;;;;;5.50;3.50;;;;;9.34;73.01;101084.88;2382514;28;45283;-80
2022/11/24 07:26:18;;;;;;;;;4.00;3.00;;;;;9.35;72.70;101081.38;2387245;28;46313;-80
2022/11/24 07:27:29;;;;;;;;;3.25;3.25;;;;;9.35;72.33;101084.00;2394393;28;44774;-80
2022/11/24 07:28:39;;;;;;;;;3.00;3.00;;;;;9.36;72.42;101087.50;2393369;28;46852;-80
2022/11/24 07:29:49;;;;;;;;;5.00;3.50;;;;;9.34;72.72;101091.00;2384275;28;45247;-80
2022/11/24 07:31:08;;;;;;;;;5.00;3.25;;;;;9.35;72.65;101094.50;2386506;28;45426;-80
2022/11/24 07:32:18;;;;;;;;;3.50;3.50;;;;;9.34;72.67;101091.00;2390051;28;45535;-80
2022/11/24 07:33:29;;;;;;;;;3.75;2.50;;;;;9.35;72.34;101097.13;2391129;28;45393;-79
2022/11/24 07:34:39;;;;;;;;;4.25;3.25;;;;;9.33;72.27;101091.88;2394022;28;44549;-79
2022/11/24 07:35:52;;;;;;;;;4.75;2.75;;;;;9.33;72.25;101096.28;2383203;28;47300;-79
2022/11/24 07:37:02;;;;;;;;;4.25;3.00;;;;;9.33;72.50;101097.13;2384809;28;46180;-80
2022/11/24 07:38:13;;;;;;;;;4.75;2.75;;;;;9.34;72.03;101096.25;2383767;28;46759;-79
2022/11/24 07:39:23;;;;;;;;;5.25;4.00;;;;;9.33;72.19;101094.50;2385164;28;45287;-79
2022/11/24 07:40:33;;;;;;;;;4.25;3.75;;;;;9.34;72.17;101095.38;2394073;28;45374;-79
2022/11/24 07:41:44;;;;;;;;;5.00;3.75;;;;;9.34;72.56;101103.25;2384594;28;45200;-79
2022/11/24 07:42:54;;;;;;;;;4.50;3.00;;;;;9.34;72.13;101108.50;2386894;28;45334;-80
2022/11/24 07:44:04;;;;;;;;;6.50;3.25;;;;;9.34;72.46;101100.63;2393271;28;44669;-79
2022/11/24 07:45:15;;;;;;;;;2.50;2.50;;;;;9.32;72.56;101094.56;2390191;28;45728;-79
2022/11/24 07:46:25;;;;;;;;;6.00;5.00;;;;;9.33;72.40;101094.50;2386861;28;45420;-79
2022/11/24 07:47:39;;;;;;;;;5.25;3.50;;;;;9.33;72.34;101099.75;2391529;28;46095;-80
2022/11/24 07:48:50;;;;;;;;;4.00;2.75;;;;;9.31;72.62;101092.84;2394206;28;45226;-80
2022/11/24 07:50:00;;;;;;;;;6.50;4.00;;;;;9.33;72.67;101105.00;2383918;28;47797;-80
2022/11/24 07:51:11;;;;;;;;;6.25;3.25;;;;;9.32;72.45;101099.78;2381312;28;45255;-79
2022/11/24 07:52:25;;;;;;;;;8.50;5.00;;;;;9.31;72.48;101096.31;2389873;28;45309;-80
2022/11/24 07:53:36;;;;;;;;;5.00;4.00;;;;;9.32;72.59;101105.03;2393067;28;45165;-80
2022/11/24 07:54:46;;;;;;;;;5.50;4.50;;;;;9.33;72.57;101109.41;2385584;28;46244;-79
2022/11/24 07:55:59;;;;;;;;;5.25;3.75;;;;;9.34;72.23;101116.34;2377860;28;44750;-80
2022/11/24 07:57:09;;;;;;;;;5.50;5.00;;;;;9.33;72.53;101114.66;2385879;28;45389;-80
2022/11/24 07:58:20;;;;;;;;;5.50;4.00;;;;;9.33;72.56;101112.88;2389371;28;45181;-79
2022/11/24 07:59:30;;;;;;;;;7.00;3.50;;;;;9.35;72.53;101115.47;2389396;28;46698;-80
2022/11/24 08:00:41;;;;;;;;;5.25;5.00;;;;;9.36;72.83;101119.81;2392955;28;45255;-80
2022/11/24 08:01:51;;;;;;;;;5.00;5.00;;;;;9.36;73.01;101124.22;2383599;28;47261;-79
2022/11/24 08:03:01;;;;;;;;;9.50;5.00;;;;;9.37;73.08;101132.03;2386717;28;44769;-80
2022/11/24 08:04:12;;;;;;;;;6.50;6.50;;;;;9.37;73.68;101132.03;2393825;28;45501;-80
2022/11/24 08:05:22;;;;;;;;;8.50;4.25;;;;;9.39;73.30;101142.50;2394142;28;45449;-79
2022/11/24 08:06:32;;;;;;;;;7.00;5.25;;;;;9.40;73.36;101139.00;2393024;28;46200;-80
2022/11/24 08:07:43;;;;;;;;;5.75;4.00;;;;;9.42;73.18;101145.94;2380339;28;45496;-80
2022/11/24 08:08:53;;;;;;;;;6.75;5.75;;;;;9.42;73.34;101145.94;2376662;28;46651;-80
2022/11/24 08:10:04;;;;;;;;;6.00;3.75;;;;;9.42;73.50;101138.06;2377095;28;45786;-80
2022/11/24 08:11:16;;;;;;;;;8.00;5.00;;;;;9.44;73.42;101141.50;2378188;28;46587;-79
2022/11/24 08:12:27;;;;;;;;;6.50;4.25;;;;;9.45;73.18;101148.50;2380066;28;45358;-79
2022/11/24 08:13:38;;;;;;;;;10.50;6.00;;;;;9.49;73.39;101151.03;2386552;28;46340;-79
2022/11/24 08:14:49;;;;;;;;;9.75;4.50;;;;;9.49;73.55;101145.78;2394068;28;45244;-79
2022/11/24 08:16:03;;;;;;;;;3.25;2.50;;;;;9.50;73.47;101147.53;2392735;28;45358;-80
2022/11/24 08:17:13;;;;;;;;;6.00;3.00;;;;;9.53;73.81;101147.47;2393898;28;45247;-79
2022/11/24 08:18:24;;;;;;;;;6.50;5.00;;;;;9.53;73.38;101144.84;2393141;28;45741;-79
2022/11/24 08:19:34;;;;;;;;;7.00;5.00;;;;;9.57;73.70;101152.59;2383763;28;45360;-80
2022/11/24 08:20:45;;;;;;;;;6.50;5.00;;;;;9.58;73.44;101156.06;2374295;28;47050;-79
2022/11/24 08:21:55;;;;;;;;;6.75;4.75;;;;;9.60;73.81;101159.56;2379163;28;45318;-79
2022/11/24 08:23:05;;;;;;;;;6.00;6.00;;;;;9.62;73.64;101159.50;2391043;28;46430;-79
2022/11/24 08:24:16;;;;;;;;;10.75;7.50;;;;;9.64;73.51;101161.19;2392613;28;44789;-79
2022/11/24 08:25:32;;;;;;;;;6.75;6.00;;;;;9.68;73.39;101172.47;2391198;28;45377;-79
2022/11/24 08:26:43;;;;;;;;;8.25;5.25;;;;;9.71;73.45;101174.16;2393387;28;45487;-79
2022/11/24 08:27:53;;;;;;;;;6.00;5.00;;;;;9.73;73.57;101168.00;2392611;28;48006;-79
2022/11/24 08:29:03;;;;;;;;;8.25;6.00;;;;;9.74;73.22;101171.50;2390812;28;45272;-79
2022/11/24 08:30:13;;;;;;;;;9.50;6.00;;;;;9.77;73.47;101179.31;2389691;28;45352;-79
2022/11/24 08:31:31;;;;;;;;;6.00;5.00;;;;;9.79;73.33;101180.13;2393502;28;45175;-79
2022/11/24 08:32:41;;;;;;;;;7.00;5.50;;;;;9.83;73.44;101173.06;2392974;28;48139;-79
2022/11/24 08:33:54;;;;;;;;;6.25;6.00;;;;;9.85;73.39;101177.34;2392625;28;45187;-79
2022/11/24 08:35:05;;;;;;;;;8.00;4.25;;;;;9.87;73.52;101172.09;2387772;28;45480;-79
2022/11/24 08:36:17;;;;;;;;;11.50;7.50;;;;;9.89;73.34;101176.41;2389079;28;45329;-79
2022/11/24 08:37:28;;;;;;;;;7.25;5.75;;;;;9.92;73.18;101175.47;2374322;28;47317;-79
2022/11/24 08:38:39;;;;;;;;;7.25;5.00;;;;;9.94;73.48;101172.78;2383105;28;44727;-79
2022/11/24 08:39:51;;;;;;;;;8.00;5.00;;;;;9.95;73.07;101175.38;2383730;28;48127;-79
2022/11/24 08:41:03;;;;;;;;;6.75;6.75;;;;;9.98;73.30;101184.94;2379013;28;45295;-79
2022/11/24 08:42:13;;;;;;;;;9.25;7.00;;;;;9.99;73.21;101186.69;2377282;28;45482;-79
2022/11/24 08:43:23;;;;;;;;;7.50;5.25;;;;;9.97;73.25;101178.84;2386401;28;45437;-79
2022/11/24 08:44:34;;;;;;;;;10.75;5.50;;;;;9.99;73.18;101176.19;2388081;28;47776;-79
2022/11/24 08:45:44;;;;;;;;;8.00;5.75;;;;;10.00;72.96;101180.53;2391888;28;45376;-79
2022/11/24 08:46:54;;;;;;;;;6.00;5.00;;;;;10.01;73.05;101180.50;2392744;28;47073;-79
2022/11/24 08:48:05;;;;;;;;;10.25;7.00;;;;;10.01;73.17;101175.25;2390631;28;45351;-79
2022/11/24 08:49:17;;;;;;;;;6.75;4.00;;;;;10.04;72.67;101171.69;2387835;28;45270;-79
2022/11/24 08:50:28;;;;;;;;;7.50;5.75;;;;;10.05;73.31;101180.44;2393723;28;45180;-79
2022/11/24 08:51:38;;;;;;;;;10.75;5.00;;;;;10.05;73.29;101178.66;2392536;28;46503;-79
2022/11/24 08:52:51;;;;;;;;;5.75;4.25;;;;;10.08;73.19;101181.22;2389976;28;45259;-79
2022/11/24 08:54:02;;;;;;;;;6.75;6.75;;;;;10.09;73.06;101180.31;2391616;28;48592;-79
2022/11/24 08:55:12;;;;;;;;;8.00;6.00;;;;;10.10;72.97;101189.06;2385597;28;44734;-79
2022/11/24 08:56:24;;;;;;;;;6.50;6.25;;;;;10.11;73.04;101180.28;2385411;28;45423;-79
2022/11/24 08:57:34;;;;;;;;;6.00;6.00;;;;;10.10;72.77;101179.41;2393756;28;45286;-79
2022/11/24 08:58:45;;;;;;;;;7.25;6.50;;;;;10.13;73.23;101187.22;2392758;28;47976;-79
2022/11/24 08:59:55;;;;;;;;;7.75;6.50;;;;;10.14;72.98;101182.84;2380804;28;45336;-79
2022/11/24 09:01:12;;;;;;;;;3.25;3.25;;;;;10.17;72.89;101185.41;2379969;28;45480;-79
2022/11/24 09:02:22;;;;;;;;;6.50;5.00;;;;;10.18;72.98;101187.09;2388388;28;45361;-79
2022/11/24 09:03:33;;;;;;;;;8.75;6.00;;;;;10.20;72.90;101187.06;2383922;28;45367;-79
2022/11/24 09:04:44;;;;;;;;;9.75;6.00;;;;;10.18;73.01;101187.09;2387314;28;45387;-79
2022/11/24 09:05:55;;;;;;;;;6.50;6.00;;;;;10.20;73.12;101185.31;2388354;28;45604;-79
2022/11/24 09:07:05;;;;;;;;;5.25;4.00;;;;;10.21;73.06;101186.16;2393546;28;44844;-79
2022/11/24 09:08:15;;;;;;;;;7.50;5.00;;;;;10.23;73.05;101182.59;2393529;28;45435;-79
2022/11/24 09:09:26;;;;;;;;;6.50;5.00;;;;;10.26;73.11;101189.56;2393478;28;44744;-79
2022/11/24 09:10:36;;;;;;;;;7.00;6.00;;;;;10.28;73.22;101186.88;2393359;28;46110;-79
2022/11/24 09:11:47;;;;;;;;;5.50;4.50;;;;;10.29;73.15;101184.22;2390902;28;46893;-79
2022/11/24 09:12:57;;;;;;;;;7.50;3.50;;;;;10.32;72.92;101178.88;2388846;28;46223;-79
2022/11/24 09:14:08;;;;;;;;;8.25;5.00;;;;;10.33;73.06;101185.00;2388595;28;45200;-80
2022/11/24 09:15:19;;;;;;;;;4.50;4.50;;;;;10.35;72.99;101183.19;2375215;28;47041;-79
2022/11/24 09:16:29;;;;;;;;;6.50;5.00;;;;;10.36;72.93;101187.56;2380086;28;45288;-79
2022/11/24 09:17:39;;;;;;;;;7.75;4.75;;;;;10.37;73.27;101186.66;2393396;28;45213;-79
2022/11/24 09:19:01;;;;;;;;;5.25;3.00;;;;;10.38;72.80;101190.13;2392865;28;44672;-79
2022/11/24 09:20:11;;;;;;;;;4.25;4.25;;;;;10.37;73.35;101183.19;2388480;28;47791;-79
2022/11/24 09:21:22;;;;;;;;;4.50;4.00;;;;;10.41;72.37;101195.31;2386125;28;44647;-79
2022/11/24 09:22:33;;;;;;;;;5.25;5.00;;;;;10.40;73.02;101190.97;2379220;28;47205;-79
2022/11/24 09:23:47;;;;;;;;;5.00;4.50;;;;;10.41;72.90;101187.44;2386206;28;45175;-79
2022/11/24 09:24:57;;;;;;;;;2.50;1.50;;;;;10.42;73.01;101189.19;2391232;28;45428;-79
2022/11/24 09:26:13;;;;;;;;;4.75;4.00;;;;;10.43;72.97;101190.91;2393324;28;45239;-79
2022/11/24 09:27:23;;;;;;;;;6.25;4.00;;;;;10.44;73.02;101190.00;2392858;28;45513;-80
2022/11/24 09:28:34;;;;;;;;;7.50;4.00;;;;;10.45;72.41;101195.22;2393367;28;45486;-80
2022/11/24 09:29:44;;;;;;;;;4.50;3.00;;;;;10.47;72.83;101190.78;2393250;28;46320;-79
2022/11/24 09:30:58;;;;;;;;;5.25;4.00;;;;;10.48;72.95;101199.53;2393267;28;45247;-79
2022/11/24 09:32:09;;;;;;;;;7.00;4.00;;;;;10.49;73.00;101196.00;2387486;28;47484;-79
2022/11/24 09:33:19;;;;;;;;;9.50;3.25;;;;;10.50;72.82;101197.72;2385175;28;45195;-79
2022/11/24 09:34:29;;;;;;;;;9.50;3.00;;;;;10.53;72.81;101204.69;2388761;28;46090;-79
2022/11/24 09:35:40;;;;;;;;;4.25;4.00;;;;;10.53;72.81;101191.56;2387751;28;45210;-79
2022/11/24 09:36:50;;;;;;;;;5.50;4.00;;;;;10.56;72.98;101192.34;2393236;28;46196;-79
2022/11/24 09:38:00;;;;;;;;;5.75;2.75;;;;;10.58;72.75;101195.81;2392119;28;45212;-79
2022/11/24 09:39:11;;;;;;;;;4.50;3.00;;;;;10.60;72.89;101192.25;2381427;28;46138;-79
2022/11/24 09:40:21;;;;;;;;;7.75;3.00;;;;;10.63;73.09;101189.56;2386146;28;45364;-79
2022/11/24 09:41:38;;;;;;;;;4.25;2.25;;;;;10.67;72.96;101196.44;2392623;28;45550;-79
2022/11/24 09:43:23;;;;;;;;;7.75;4.50;;;;;10.68;72.86;101180.66;2393367;28;45171;-79
2022/11/24 09:44:52;;;;;;;;;4.00;3.00;;;;;10.70;72.92;101188.50;2354606;29;45530;-79
2022/11/24 09:46:17;;;;;;;;;4.50;3.00;;;;;10.72;72.82;101185.84;2384837;28;45358;-79
2022/11/24 09:48:11;;;;;;;;;6.50;3.50;;;;;10.77;73.05;101187.41;2393332;28;46753;-79
2022/11/24 09:49:45;;;;;;;;;5.00;5.00;;;;;10.79;72.98;101187.41;2363219;28;45495;-78
2022/11/24 09:51:01;;;;;;;;;6.00;4.00;;;;;10.80;72.87;101187.34;2393292;28;46300;-79
2022/11/24 09:52:17;;;;;;;;;5.00;5.00;;;;;10.83;72.52;101182.91;2390749;28;45221;-79
2022/11/24 09:53:33;;;;;;;;;5.00;4.25;;;;;10.87;72.85;101193.28;2392266;28;47095;-79
2022/11/24 09:54:52;;;;;;;;;2.25;2.25;;;;;10.88;72.75;101187.16;2382973;28;45419;-79
2022/11/24 09:56:13;;;;;;;;;4.00;3.00;;;;;10.93;72.56;101189.66;2383609;28;45737;-80
2022/11/24 09:57:28;;;;;;;;;6.50;5.00;;;;;10.96;72.84;101193.97;2384419;28;45159;-79
2022/11/24 09:58:44;;;;;;;;;5.00;3.00;;;;;10.98;72.73;101203.53;2393216;28;46418;-79
2022/11/24 10:00:00;;;;;;;;;6.25;3.50;;;;;11.00;72.30;101196.47;2391890;28;45235;-79
2022/11/24 10:01:18;;;;;;;;;5.00;4.00;;;;;11.02;72.32;101199.03;2392882;28;46443;-79
2022/11/24 10:02:29;;;;;;;;;8.75;5.50;;;;;11.05;72.23;101206.00;2389364;28;45482;-79
2022/11/24 10:03:45;;;;;;;;;9.00;6.00;;;;;11.06;71.50;101199.84;2383517;28;46165;-79
2022/11/24 10:04:56;;;;;;;;;6.00;6.00;;;;;11.05;72.20;101203.34;2392419;28;45429;-79
2022/11/24 10:06:21;;;;;;;;;3.50;3.50;;;;;11.08;72.25;101216.44;2392868;28;45390;-79
2022/11/24 10:07:41;;;;;;;;;6.00;5.00;;;;;11.09;72.04;101212.88;2393270;28;45293;-79
2022/11/24 10:09:14;;;;;;;;;6.25;5.00;;;;;11.12;72.15;101205.78;2393134;28;46676;-79
2022/11/24 10:10:36;;;;;;;;;5.75;5.25;;;;;11.13;71.91;101211.91;2385968;28;45167;-79
2022/11/24 10:11:59;;;;;;;;;4.00;4.00;;;;;11.13;71.96;101217.19;2388802;28;45655;-79
2022/11/24 10:13:12;;;;;;;;;6.75;5.00;;;;;11.16;71.93;101216.22;2391678;28;44770;-79
2022/11/24 10:14:40;;;;;;;;;6.75;4.75;;;;;11.16;72.00;101221.50;2391093;28;45469;-79
2022/11/24 10:16:06;;;;;;;;;6.00;4.50;;;;;11.16;71.84;101224.97;2393196;28;45253;-79
2022/11/24 10:17:35;;;;;;;;;7.00;5.00;;;;;11.19;71.65;101214.38;2383679;28;45472;-80
2022/11/24 10:19:03;;;;;;;;;5.00;5.00;;;;;11.18;71.99;101207.38;2392274;28;45409;-80
2022/11/24 10:20:22;;;;;;;;;8.00;6.00;;;;;11.22;72.10;101211.66;2382744;28;48918;-79
2022/11/24 10:21:58;;;;;;;;;6.75;3.50;;;;;11.22;71.88;101211.66;2387085;28;45453;-79
2022/11/24 10:23:27;;;;;;;;;7.25;6.25;;;;;11.22;72.11;101216.91;2393132;28;46291;-79
2022/11/24 10:25:18;;;;;;;;;7.75;3.75;;;;;11.22;71.72;101210.78;2389179;28;45420;-79
2022/11/24 10:26:39;;;;;;;;;9.00;5.25;;;;;11.22;71.62;101203.75;2387837;28;46515;-79
2022/11/24 10:28:01;;;;;;;;;4.75;3.75;;;;;11.22;71.97;101193.22;2380644;28;45240;-79
2022/11/24 10:29:11;;;;;;;;;7.00;5.50;;;;;11.24;71.94;101199.31;2384458;28;46104;-79
2022/11/24 10:30:25;;;;;;;;;7.75;5.75;;;;;11.24;71.91;101194.03;2392242;28;44711;-79
2022/11/24 10:31:42;;;;;;;;;9.00;6.00;;;;;11.26;71.66;101188.72;2392754;28;45547;-79
2022/11/24 10:33:24;;;;;;;;;6.75;4.75;;;;;11.28;71.76;101186.94;2393124;28;45302;-79
2022/11/24 10:34:40;;;;;;;;;7.75;6.50;;;;;11.30;71.70;101189.53;2371461;28;45583;-79
2022/11/24 10:36:02;;;;;;;;;6.75;6.00;;;;;11.31;71.86;101178.94;2388746;28;45420;-79
2022/11/24 10:37:21;;;;;;;;;10.00;6.25;;;;;11.32;71.45;101180.69;2393045;28;46389;-79
2022/11/24 10:38:57;;;;;;;;;7.50;6.00;;;;;11.34;71.53;101176.22;2393309;28;45250;-79
2022/11/24 10:40:26;;;;;;;;;9.00;6.25;;;;;11.37;71.53;101183.16;2393236;28;45315;-80
2022/11/24 10:42:01;;;;;;;;;7.25;4.25;;;;;11.38;71.46;101178.78;2393182;28;45188;-79
2022/11/24 10:43:12;;;;;;;;;7.50;3.00;;;;;11.38;71.69;101176.16;2389029;28;45240;-80
2022/11/24 10:44:22;;;;;;;;;7.75;4.00;;;;;11.39;71.48;101175.22;2383064;28;45286;-80
2022/11/24 10:45:36;;;;;;;;;5.50;4.00;;;;;11.39;71.59;101165.56;2389888;28;46452;-80
2022/11/24 10:46:46;;;;;;;;;8.25;6.50;;;;;11.41;71.69;101171.63;2391623;28;45360;-79
2022/11/24 10:47:57;;;;;;;;;8.75;6.50;;;;;11.45;71.51;101169.78;2392099;28;47307;-79
2022/11/24 10:49:18;;;;;;;;;7.25;5.75;;;;;11.46;71.40;101172.38;2392510;28;45343;-79
2022/11/24 10:50:35;;;;;;;;;8.00;7.00;;;;;11.50;71.57;101165.25;2393048;28;45425;-79
2022/11/24 10:52:04;;;;;;;;;8.00;6.75;;;;;11.53;71.63;101166.94;2393254;28;45626;-80
2022/11/24 10:53:17;;;;;;;;;7.50;7.00;;;;;11.55;71.71;101158.09;2383399;28;47309;-79
2022/11/24 10:54:28;;;;;;;;;7.50;6.75;;;;;11.57;71.73;101158.88;2387328;28;45180;-79
2022/11/24 10:55:53;;;;;;;;;9.00;6.50;;;;;11.59;71.58;101156.19;2394446;28;46212;-79
2022/11/24 10:57:04;;;;;;;;;9.75;6.00;;;;;11.61;71.42;101159.63;2393918;28;45302;-79
2022/11/24 10:58:15;;;;;;;;;11.75;8.00;;;;;11.62;71.35;101157.88;2384097;28;46995;-79
2022/11/24 10:59:34;;;;;;;;;10.75;6.75;;;;;11.63;71.19;101152.56;2387192;28;45310;-79
2022/11/24 11:00:44;;;;;;;;;11.25;7.75;;;;;11.65;71.21;101156.03;2392391;28;46629;-79
2022/11/24 11:01:55;;;;;;;;;11.75;8.50;;;;;11.65;70.94;101150.75;2394482;28;44737;-79
2022/11/24 11:03:20;;;;;;;;;8.25;6.00;;;;;11.68;70.70;101161.19;2392826;28;47409;-79
2022/11/24 11:04:34;;;;;;;;;8.25;8.00;;;;;11.67;70.95;101151.56;2393334;28;45258;-79
2022/11/24 11:05:50;;;;;;;;;8.50;7.50;;;;;11.69;70.97;101151.50;2393583;28;47278;-79
2022/11/24 11:07:08;;;;;;;;;9.75;6.25;;;;;11.69;70.97;101151.50;2390742;28;45282;-79
2022/11/24 11:08:29;;;;;;;;;7.75;6.00;;;;;11.70;70.77;101143.56;2393277;28;45279;-79
2022/11/24 11:09:39;;;;;;;;;7.75;6.00;;;;;11.72;71.00;101138.25;2394437;28;45171;-79
2022/11/24 11:11:25;;;;;;;;;9.50;7.50;;;;;11.76;70.81;101136.38;2394327;28;46246;-79
2022/11/24 11:12:36;;;;;;;;;11.25;8.00;;;;;11.75;70.96;101130.28;2393724;28;44676;-79
2022/11/24 11:13:54;;;;;;;;;11.50;8.00;;;;;11.79;71.27;101142.41;2394508;28;46327;-79
2022/11/24 11:15:29;;;;;;;;;10.25;9.00;;;;;11.81;70.99;101130.06;2387264;28;44657;-79
2022/11/24 11:16:49;;;;;;;;;14.00;9.00;;;;;11.81;71.01;101127.44;2380295;28;47865;-78
2022/11/24 11:18:00;;;;;;;;;14.00;8.00;;;;;11.84;70.95;101131.72;2386495;28;45448;-79
2022/11/24 11:19:40;;;;;;;;;7.50;7.25;;;;;11.86;70.81;101129.91;2396879;28;46342;-79
2022/11/24 11:20:55;;;;;;;;;10.50;8.00;;;;;11.87;70.84;101126.38;2382184;28;45314;-79
2022/11/24 11:22:26;;;;;;;;;9.50;5.50;;;;;11.88;70.99;101122.81;2378416;28;45586;-79
2022/11/24 11:23:38;;;;;;;;;8.50;7.00;;;;;11.90;70.88;101120.16;2396485;28;45408;-79
2022/11/24 11:25:03;;;;;;;;;15.50;7.00;;;;;11.91;70.61;101120.09;2392005;28;45807;-79
2022/11/24 11:26:30;;;;;;;;;7.25;7.00;;;;;11.92;70.66;101124.47;2390371;28;45456;-79
2022/11/24 11:27:41;;;;;;;;;8.75;5.25;;;;;11.93;70.38;101122.66;2388193;28;47132;-79
2022/11/24 11:29:07;;;;;;;;;9.50;6.50;;;;;11.98;70.44;101125.16;2383837;28;45266;-79
2022/11/24 11:30:26;;;;;;;;;8.75;5.25;;;;;11.96;70.41;101119.06;2388549;28;45429;-79
2022/11/24 11:31:38;;;;;;;;;4.25;0.75;;;;;11.96;70.20;101112.03;2393086;28;45263;-79
2022/11/24 11:32:59;;;;;;;;;8.00;6.00;;;;;11.97;70.25;101111.13;2388085;28;46458;-79
2022/11/24 11:34:17;;;;;;;;;8.00;4.75;;;;;11.97;70.41;101112.91;2391632;28;45459;-79
2022/11/24 11:35:32;;;;;;;;;8.00;5.50;;;;;11.98;70.34;101109.34;2384826;28;45614;-79
2022/11/24 11:36:49;;;;;;;;;10.75;5.50;;;;;11.99;70.21;101109.31;2386149;28;45480;-79
2022/11/24 11:38:05;;;;;;;;;7.25;6.50;;;;;11.99;70.36;101109.31;2378006;28;46773;-79
2022/11/24 11:39:27;;;;;;;;;8.25;4.50;;;;;12.03;70.53;101110.06;2377877;28;45289;-79
2022/11/24 11:40:41;;;;;;;;;9.00;5.00;;;;;12.02;70.52;101106.59;2378799;28;48024;-79
2022/11/24 11:42:17;;;;;;;;;5.50;5.50;;;;;12.05;69.82;101110.84;2384221;28;45365;-79
2022/11/24 11:43:38;;;;;;;;;5.25;5.25;;;;;12.07;70.29;101102.91;2379900;28;46081;-79
2022/11/24 11:44:56;;;;;;;;;10.50;5.25;;;;;12.09;70.28;101096.69;2389856;28;45311;-79
2022/11/24 11:46:06;;;;;;;;;7.00;4.50;;;;;12.11;70.26;101100.13;2386978;28;46262;-79
2022/11/24 11:47:32;;;;;;;;;8.50;5.25;;;;;12.11;70.05;101096.63;2384621;28;45168;-79
2022/11/24 11:48:45;;;;;;;;;7.50;6.50;;;;;12.10;70.29;101082.59;2392215;28;45334;-79
2022/11/24 11:49:56;;;;;;;;;6.50;4.25;;;;;12.14;70.04;101086.03;2389788;28;44772;-79
2022/11/24 11:51:15;;;;;;;;;9.75;5.00;;;;;12.17;69.72;101095.59;2383305;28;47466;-79
2022/11/24 11:53:06;;;;;;;;;7.00;5.00;;;;;12.17;69.97;101104.38;2384550;28;45279;-79
2022/11/24 11:54:33;;;;;;;;;11.25;5.75;;;;;12.18;69.85;101090.28;2384582;28;46468;-79
2022/11/24 11:55:47;;;;;;;;;9.00;6.25;;;;;12.18;69.93;101089.41;2393800;28;45159;-79
2022/11/24 11:57:37;;;;;;;;;5.50;5.50;;;;;12.21;69.67;101084.03;2392791;28;48049;-79
2022/11/24 11:59:16;;;;;;;;;7.50;4.00;;;;;12.24;69.94;101086.56;2385879;28;45472;-79
2022/11/24 12:00:30;;;;;;;;;8.50;5.75;;;;;12.25;69.63;101090.91;2392979;28;47257;-79
2022/11/24 12:02:10;;;;;;;;;6.25;6.25;;;;;12.27;69.77;101083.84;2382704;28;45270;-79
2022/11/24 12:03:54;;;;;;;;;9.25;6.00;;;;;12.30;69.63;101088.16;2387099;28;46662;-79
2022/11/24 12:05:25;;;;;;;;;6.00;4.75;;;;;12.30;69.53;101077.59;2392380;28;44871;-78
2022/11/24 12:06:47;;;;;;;;;5.75;3.50;;;;;12.33;69.06;101078.34;2390144;28;46600;-81
2022/11/24 12:08:07;;;;;;;;;0.75;0.00;;;;;12.36;69.12;101080.00;2393958;28;45231;-81